createdAt,value
2022-11-16T00:04:10.052Z,10.9
2022-11-16T00:14:12.069Z,10.8
2022-11-16T00:24:14.121Z,10.8
2022-11-16T00:34:16.801Z,10.7
2022-11-16T00:44:18.808Z,10.7
2022-11-16T00:54:20.977Z,10.7
2022-11-16T01:04:23.196Z,10.6
2022-11-16T01:14:25.069Z,10.6
2022-11-16T01:24:27.400Z,10.6
2022-11-16T01:34:29.427Z,10.6
2022-11-16T01:44:31.819Z,10.5
2022-11-16T01:54:34.067Z,10.5
2022-11-16T02:14:37.848Z,10.5
2022-11-16T02:24:39.936Z,10.4
2022-11-16T02:34:41.680Z,10.4
2022-11-16T02:44:43.712Z,10.5
2022-11-16T02:54:46.143Z,10.4
2022-11-16T03:04:48.498Z,10.4
2022-11-16T03:14:51.067Z,10.4
2022-11-16T03:24:53.726Z,10.5
2022-11-16T03:44:58.009Z,10.4
2022-11-16T03:55:00.344Z,10.4
2022-11-16T04:05:02.662Z,10.5
2022-11-16T04:15:04.761Z,10.6
2022-11-16T04:45:11.194Z,10.6
2022-11-16T04:55:13.605Z,10.6
2022-11-16T05:15:17.796Z,10.6
2022-11-16T05:25:19.580Z,10.7
2022-11-16T05:35:22.062Z,10.7
2022-11-16T05:45:24.289Z,10.7
2022-11-16T05:55:26.463Z,10.7
2022-11-16T06:05:28.623Z,10.8
2022-11-16T06:15:31.265Z,10.8
2022-11-16T06:25:33.128Z,10.7
2022-11-16T06:35:35.223Z,10.6
2022-11-16T06:45:37.663Z,10.5
2022-11-16T06:55:40.030Z,10.5
2022-11-16T07:15:43.997Z,10.5
2022-11-16T07:35:48.599Z,10.5
2022-11-16T07:45:51.252Z,10.6
2022-11-16T07:55:53.432Z,10.7
2022-11-16T08:05:56.090Z,10.7
2022-11-16T08:15:58.445Z,10.7
2022-11-16T08:26:00.780Z,10.7
2022-11-16T08:36:03.111Z,10.7
2022-11-16T08:46:05.598Z,10.6
2022-11-16T08:56:07.781Z,10.6
2022-11-16T09:06:10.265Z,10.6
2022-11-16T09:16:12.730Z,10.6
2022-11-16T09:26:15.145Z,10.8
2022-11-16T09:36:17.158Z,10.8
2022-11-16T09:56:22.409Z,11.4
2022-11-16T10:06:23.103Z,11.5
2022-11-16T10:36:29.173Z,12.8
2022-11-16T10:46:31.395Z,12.8
2022-11-16T10:56:33.091Z,13.1
2022-11-16T11:06:34.857Z,13.1
2022-11-16T11:16:37.204Z,13.3
2022-11-16T11:26:39.221Z,12.8
2022-11-16T11:36:41.811Z,12.5
2022-11-16T11:47:35.545Z,12.3
2022-11-16T11:56:46.084Z,12.5
2022-11-16T12:06:48.479Z,12.6
2022-11-16T12:36:55.249Z,14.2
2022-11-16T12:46:57.448Z,13.8
2022-11-16T12:56:59.625Z,13.5
2022-11-16T13:07:05.356Z,14.8
2022-11-16T13:17:04.688Z,14.2
2022-11-16T13:27:06.734Z,13.4
2022-11-16T13:37:08.737Z,13.1
2022-11-16T13:47:10.836Z,13
2022-11-16T13:57:13.012Z,12.9
2022-11-16T14:07:15.550Z,12.7
2022-11-16T14:17:18.036Z,12.5
2022-11-16T14:27:19.765Z,12.4
2022-11-16T14:37:22.161Z,12.3
2022-11-16T14:47:24.126Z,12.2
2022-11-16T14:57:26.703Z,12
2022-11-16T14:58:54.105Z,12
2022-11-16T15:07:38.268Z,11.9
2022-11-16T15:17:40.762Z,11.9
2022-11-16T15:27:43.400Z,11.8
2022-11-16T15:37:45.683Z,11.8
2022-11-16T15:47:47.892Z,11.7
2022-11-16T15:57:49.764Z,11.4
2022-11-16T16:17:54.280Z,10.9
2022-11-16T16:27:56.460Z,10.8
2022-11-16T16:37:58.931Z,10.6
2022-11-16T16:48:01.261Z,10.5
2022-11-16T16:58:03.362Z,10.4
2022-11-16T17:18:07.997Z,10.4
2022-11-16T17:28:09.869Z,10.4
2022-11-16T17:38:11.555Z,10.5
2022-11-16T17:48:14.092Z,10.7
2022-11-16T17:58:15.812Z,10.8
2022-11-16T18:08:17.918Z,10.8
2022-11-16T18:18:20.255Z,10.8
2022-11-16T18:28:22.572Z,10.7
2022-11-16T18:38:25.071Z,10.6
2022-11-16T18:48:27.312Z,10.4
2022-11-16T18:58:49.135Z,10.3
2022-11-16T19:08:32.372Z,10.1
2022-11-16T19:18:34.257Z,10
2022-11-16T19:28:36.279Z,10
2022-11-16T19:38:38.071Z,9.9
2022-11-16T19:48:40.071Z,9.8
2022-11-16T19:58:42.078Z,9.8
2022-11-16T20:08:44.362Z,9.7
2022-11-16T20:18:46.628Z,9.6
2022-11-16T20:28:48.434Z,9.5
2022-11-16T20:38:51.119Z,9.4
2022-11-16T20:48:53.389Z,9.3
2022-11-16T20:58:55.620Z,9.3
2022-11-16T21:08:58.245Z,9.4
2022-11-16T21:19:00.086Z,9.3
2022-11-16T21:29:02.080Z,9.3
2022-11-16T21:39:03.845Z,9.3
2022-11-16T21:49:05.617Z,9.2
2022-11-16T21:59:07.412Z,9.2
2022-11-16T22:39:16.667Z,9.2
2022-11-16T22:59:21.407Z,9.2
2022-11-16T23:09:23.552Z,9.3
2022-11-16T23:29:27.771Z,9.5
2022-11-16T23:39:30.133Z,9.5
2022-11-16T23:49:32.679Z,9.4
